sensor_id;sensor_type;location;lat;lon;timestamp;pressure;altitude;pressure_sealevel;temperature;humidity
7730;BME280;3908;52.310;7.230;2022-12-18T00:02:13;51274.16;;;-145.83;100.00
7730;BME280;3908;52.310;7.230;2022-12-18T00:05:02;51242.84;;;-145.83;100.00
7730;BME280;3908;52.310;7.230;2022-12-18T00:07:49;51264.38;;;-145.83;100.00
7730;BME280;3908;52.310;7.230;2022-12-18T00:10:36;51268.28;;;-145.83;100.00
7730;BME280;3908;52.310;7.230;2022-12-18T00:13:24;51305.47;;;-145.83;100.00
7730;BME280;3908;52.310;7.230;2022-12-18T00:16:14;51295.69;;;-145.83;100.00
7730;BME280;3908;52.310;7.230;2022-12-18T00:19:01;51242.84;;;-145.83;100.00
7730;BME280;3908;52.310;7.230;2022-12-18T00:21:53;51301.53;;;-145.83;100.00
7730;BME280;3908;52.310;7.230;2022-12-18T00:24:40;51281.97;;;-145.83;100.00
7730;BME280;3908;52.310;7.230;2022-12-18T00:27:27;51242.84;;;-145.83;100.00
7730;BME280;3908;52.310;7.230;2022-12-18T00:30:14;51248.72;;;-145.83;100.00
7730;BME280;3908;52.310;7.230;2022-12-18T00:33:02;51291.75;;;-145.83;100.00
7730;BME280;3908;52.310;7.230;2022-12-18T00:35:49;51254.59;;;-145.83;100.00
7730;BME280;3908;52.310;7.230;2022-12-18T00:38:38;51254.59;;;-145.83;100.00
7730;BME280;3908;52.310;7.230;2022-12-18T00:41:25;51270.25;;;-145.83;100.00
7730;BME280;3908;52.310;7.230;2022-12-18T00:44:38;51266.34;;;-145.83;100.00
7730;BME280;3908;52.310;7.230;2022-12-18T00:47:26;51283.94;;;-145.83;100.00
7730;BME280;3908;52.310;7.230;2022-12-18T00:50:13;51254.59;;;-145.83;100.00
7730;BME280;3908;52.310;7.230;2022-12-18T00:53:00;51295.69;;;-145.83;100.00
7730;BME280;3908;52.310;7.230;2022-12-18T00:55:50;51266.34;;;-145.83;100.00
7730;BME280;3908;52.310;7.230;2022-12-18T00:58:37;51270.25;;;-145.83;100.00
7730;BME280;3908;52.310;7.230;2022-12-18T01:01:24;51295.69;;;-145.83;100.00
7730;BME280;3908;52.310;7.230;2022-12-18T01:04:11;51262.44;;;-145.83;100.00
7730;BME280;3908;52.310;7.230;2022-12-18T01:06:58;51278.06;;;-145.83;100.00
7730;BME280;3908;52.310;7.230;2022-12-18T01:09:45;51244.81;;;-145.83;100.00
7730;BME280;3908;52.310;7.230;2022-12-18T01:12:39;51233.06;;;-145.83;100.00
7730;BME280;3908;52.310;7.230;2022-12-18T01:15:26;51276.13;;;-145.83;100.00
7730;BME280;3908;52.310;7.230;2022-12-18T01:18:13;51295.69;;;-145.83;100.00
7730;BME280;3908;52.310;7.230;2022-12-18T01:21:00;51254.59;;;-145.83;100.00
7730;BME280;3908;52.310;7.230;2022-12-18T01:23:51;51260.47;;;-145.83;100.00
7730;BME280;3908;52.310;7.230;2022-12-18T01:26:38;51238.94;;;-145.83;100.00
7730;BME280;3908;52.310;7.230;2022-12-18T01:29:27;51252.66;;;-145.83;100.00
7730;BME280;3908;52.310;7.230;2022-12-18T01:32:14;51221.34;;;-145.83;100.00
7730;BME280;3908;52.310;7.230;2022-12-18T01:35:02;51264.38;;;-145.83;100.00
7730;BME280;3908;52.310;7.230;2022-12-18T01:37:49;51238.94;;;-145.83;100.00
7730;BME280;3908;52.310;7.230;2022-12-18T01:40:40;51266.34;;;-145.83;100.00
7730;BME280;3908;52.310;7.230;2022-12-18T01:43:44;51240.91;;;-145.83;100.00
7730;BME280;3908;52.310;7.230;2022-12-18T01:46:33;51244.81;;;-145.83;100.00
7730;BME280;3908;52.310;7.230;2022-12-18T01:49:22;51242.84;;;-145.83;100.00
7730;BME280;3908;52.310;7.230;2022-12-18T01:52:09;51240.91;;;-145.83;100.00
7730;BME280;3908;52.310;7.230;2022-12-18T01:54:56;51244.81;;;-145.83;100.00
7730;BME280;3908;52.310;7.230;2022-12-18T01:57:43;51221.34;;;-145.83;100.00
7730;BME280;3908;52.310;7.230;2022-12-18T02:00:32;51254.59;;;-145.83;100.00
7730;BME280;3908;52.310;7.230;2022-12-18T02:03:21;51280.03;;;-145.83;100.00
7730;BME280;3908;52.310;7.230;2022-12-18T02:06:13;51278.06;;;-145.83;100.00
7730;BME280;3908;52.310;7.230;2022-12-18T02:09:08;51237.00;;;-145.83;100.00
7730;BME280;3908;52.310;7.230;2022-12-18T02:12:00;51233.06;;;-145.83;100.00
7730;BME280;3908;52.310;7.230;2022-12-18T02:14:57;51250.69;;;-145.83;100.00
7730;BME280;3908;52.310;7.230;2022-12-18T02:17:52;51274.16;;;-145.83;100.00
7730;BME280;3908;52.310;7.230;2022-12-18T02:20:45;51252.66;;;-145.83;100.00
7730;BME280;3908;52.310;7.230;2022-12-18T02:23:47;51258.50;;;-145.83;100.00
7730;BME280;3908;52.310;7.230;2022-12-18T02:26:38;51246.78;;;-145.83;100.00
7730;BME280;3908;52.310;7.230;2022-12-18T02:29:30;51250.69;;;-145.83;100.00
7730;BME280;3908;52.310;7.230;2022-12-18T02:32:25;51248.72;;;-145.83;100.00
7730;BME280;3908;52.310;7.230;2022-12-18T02:35:15;51252.66;;;-145.83;100.00
7730;BME280;3908;52.310;7.230;2022-12-18T02:38:04;51254.59;;;-145.83;100.00
7730;BME280;3908;52.310;7.230;2022-12-18T02:40:53;51250.69;;;-145.83;100.00
7730;BME280;3908;52.310;7.230;2022-12-18T02:43:46;51244.81;;;-145.83;100.00
7730;BME280;3908;52.310;7.230;2022-12-18T02:46:37;51235.03;;;-145.83;100.00
7730;BME280;3908;52.310;7.230;2022-12-18T02:49:33;51223.28;;;-145.83;100.00
7730;BME280;3908;52.310;7.230;2022-12-18T02:52:29;51238.94;;;-145.83;100.00
7730;BME280;3908;52.310;7.230;2022-12-18T02:55:28;51235.03;;;-145.83;100.00
7730;BME280;3908;52.310;7.230;2022-12-18T02:58:18;51262.44;;;-145.83;100.00
7730;BME280;3908;52.310;7.230;2022-12-18T03:01:12;51264.38;;;-145.83;100.00
7730;BME280;3908;52.310;7.230;2022-12-18T03:04:04;51254.59;;;-145.83;100.00
7730;BME280;3908;52.310;7.230;2022-12-18T03:06:56;51250.69;;;-145.83;100.00
7730;BME280;3908;52.310;7.230;2022-12-18T03:09:47;51233.06;;;-145.83;100.00
7730;BME280;3908;52.310;7.230;2022-12-18T03:12:39;51233.06;;;-145.83;100.00
7730;BME280;3908;52.310;7.230;2022-12-18T03:15:31;51237.00;;;-145.83;100.00
7730;BME280;3908;52.310;7.230;2022-12-18T03:18:25;51274.16;;;-145.83;100.00
7730;BME280;3908;52.310;7.230;2022-12-18T03:21:28;51258.50;;;-145.83;100.00
7730;BME280;3908;52.310;7.230;2022-12-18T03:24:17;51231.13;;;-145.83;100.00
7730;BME280;3908;52.310;7.230;2022-12-18T03:27:09;51195.91;;;-145.83;100.00
7730;BME280;3908;52.310;7.230;2022-12-18T03:30:02;51252.66;;;-145.83;100.00
7730;BME280;3908;52.310;7.230;2022-12-18T03:32:57;51254.59;;;-145.83;100.00
7730;BME280;3908;52.310;7.230;2022-12-18T03:35:49;51248.72;;;-145.83;100.00
7730;BME280;3908;52.310;7.230;2022-12-18T03:38:36;51237.00;;;-145.83;100.00
7730;BME280;3908;52.310;7.230;2022-12-18T03:41:29;51270.25;;;-145.83;100.00
7730;BME280;3908;52.310;7.230;2022-12-18T03:44:22;51248.72;;;-145.83;100.00
7730;BME280;3908;52.310;7.230;2022-12-18T03:47:15;51250.69;;;-145.83;100.00
7730;BME280;3908;52.310;7.230;2022-12-18T03:50:09;51229.16;;;-145.83;100.00
7730;BME280;3908;52.310;7.230;2022-12-18T03:53:05;51250.69;;;-145.83;100.00
7730;BME280;3908;52.310;7.230;2022-12-18T03:55:56;51250.69;;;-145.83;100.00
7730;BME280;3908;52.310;7.230;2022-12-18T03:58:46;51252.66;;;-145.83;100.00
7730;BME280;3908;52.310;7.230;2022-12-18T04:01:38;51233.06;;;-145.83;100.00
7730;BME280;3908;52.310;7.230;2022-12-18T04:04:27;51229.16;;;-145.83;100.00
7730;BME280;3908;52.310;7.230;2022-12-18T04:07:16;51233.06;;;-145.83;100.00
7730;BME280;3908;52.310;7.230;2022-12-18T04:10:09;51229.16;;;-145.83;100.00
7730;BME280;3908;52.310;7.230;2022-12-18T04:13:00;51242.84;;;-145.83;100.00
7730;BME280;3908;52.310;7.230;2022-12-18T04:15:47;51244.81;;;-145.83;100.00
7730;BME280;3908;52.310;7.230;2022-12-18T04:18:35;51250.69;;;-145.83;100.00
7730;BME280;3908;52.310;7.230;2022-12-18T04:21:22;51240.91;;;-145.83;100.00
7730;BME280;3908;52.310;7.230;2022-12-18T04:24:09;51205.69;;;-145.83;100.00
7730;BME280;3908;52.310;7.230;2022-12-18T04:26:58;51233.06;;;-145.83;100.00
7730;BME280;3908;52.310;7.230;2022-12-18T04:29:46;51238.94;;;-145.83;100.00
7730;BME280;3908;52.310;7.230;2022-12-18T04:32:33;51246.78;;;-145.83;100.00
7730;BME280;3908;52.310;7.230;2022-12-18T04:35:21;51264.38;;;-145.83;100.00
7730;BME280;3908;52.310;7.230;2022-12-18T04:38:09;51254.59;;;-145.83;100.00
7730;BME280;3908;52.310;7.230;2022-12-18T04:40:56;51223.28;;;-145.83;100.00
7730;BME280;3908;52.310;7.230;2022-12-18T04:43:45;51254.59;;;-145.83;100.00
7730;BME280;3908;52.310;7.230;2022-12-18T04:46:32;51254.59;;;-145.83;100.00
7730;BME280;3908;52.310;7.230;2022-12-18T04:49:19;51254.59;;;-145.83;100.00
7730;BME280;3908;52.310;7.230;2022-12-18T04:52:06;51244.81;;;-145.83;100.00
7730;BME280;3908;52.310;7.230;2022-12-18T04:54:56;51264.38;;;-145.83;100.00
7730;BME280;3908;52.310;7.230;2022-12-18T04:57:43;51217.44;;;-145.83;100.00
7730;BME280;3908;52.310;7.230;2022-12-18T05:00:33;51256.56;;;-145.83;100.00
7730;BME280;3908;52.310;7.230;2022-12-18T05:03:20;51231.13;;;-145.83;100.00
7730;BME280;3908;52.310;7.230;2022-12-18T05:06:07;51254.59;;;-145.83;100.00
7730;BME280;3908;52.310;7.230;2022-12-18T05:08:54;51207.66;;;-145.83;100.00
7730;BME280;3908;52.310;7.230;2022-12-18T05:11:44;51235.03;;;-145.83;100.00
7730;BME280;3908;52.310;7.230;2022-12-18T05:14:32;51225.25;;;-145.83;100.00
7730;BME280;3908;52.310;7.230;2022-12-18T05:17:20;51238.94;;;-145.83;100.00
7730;BME280;3908;52.310;7.230;2022-12-18T05:20:08;51307.41;;;-145.83;100.00
7730;BME280;3908;52.310;7.230;2022-12-18T05:22:56;51268.28;;;-145.83;100.00
7730;BME280;3908;52.310;7.230;2022-12-18T05:25:47;51235.03;;;-145.83;100.00
7730;BME280;3908;52.310;7.230;2022-12-18T05:28:36;51256.56;;;-145.83;100.00
7730;BME280;3908;52.310;7.230;2022-12-18T05:31:24;51262.44;;;-145.83;100.00
7730;BME280;3908;52.310;7.230;2022-12-18T05:34:12;51258.50;;;-145.83;100.00
7730;BME280;3908;52.310;7.230;2022-12-18T05:36:59;51223.28;;;-145.83;100.00
7730;BME280;3908;52.310;7.230;2022-12-18T05:39:46;51254.59;;;-145.83;100.00
7730;BME280;3908;52.310;7.230;2022-12-18T05:42:33;51209.59;;;-145.83;100.00
7730;BME280;3908;52.310;7.230;2022-12-18T05:45:20;51223.28;;;-145.83;100.00
7730;BME280;3908;52.310;7.230;2022-12-18T05:48:07;51240.91;;;-145.83;100.00
7730;BME280;3908;52.310;7.230;2022-12-18T05:51:06;51242.84;;;-145.83;100.00
7730;BME280;3908;52.310;7.230;2022-12-18T05:53:53;51248.72;;;-145.83;100.00
7730;BME280;3908;52.310;7.230;2022-12-18T05:56:41;51252.66;;;-145.83;100.00
7730;BME280;3908;52.310;7.230;2022-12-18T05:59:28;51254.59;;;-145.83;100.00
7730;BME280;3908;52.310;7.230;2022-12-18T06:02:15;51240.91;;;-145.83;100.00
7730;BME280;3908;52.310;7.230;2022-12-18T06:05:02;51215.47;;;-145.83;100.00
7730;BME280;3908;52.310;7.230;2022-12-18T06:07:51;51264.38;;;-145.83;100.00
7730;BME280;3908;52.310;7.230;2022-12-18T06:10:39;51229.16;;;-145.83;100.00
7730;BME280;3908;52.310;7.230;2022-12-18T06:13:26;51270.25;;;-145.83;100.00
7730;BME280;3908;52.310;7.230;2022-12-18T06:16:13;51240.91;;;-145.83;100.00
7730;BME280;3908;52.310;7.230;2022-12-18T06:19:01;51252.66;;;-145.83;100.00
7730;BME280;3908;52.310;7.230;2022-12-18T06:21:49;51252.66;;;-145.83;100.00
7730;BME280;3908;52.310;7.230;2022-12-18T06:24:38;51229.16;;;-145.83;100.00
7730;BME280;3908;52.310;7.230;2022-12-18T06:27:25;51242.84;;;-145.83;100.00
7730;BME280;3908;52.310;7.230;2022-12-18T06:30:14;51270.25;;;-145.83;100.00
7730;BME280;3908;52.310;7.230;2022-12-18T06:33:01;51287.84;;;-145.83;100.00
7730;BME280;3908;52.310;7.230;2022-12-18T06:35:49;51244.81;;;-145.83;100.00
7730;BME280;3908;52.310;7.230;2022-12-18T06:38:38;51272.22;;;-145.83;100.00
7730;BME280;3908;52.310;7.230;2022-12-18T06:41:27;51252.66;;;-145.83;100.00
7730;BME280;3908;52.310;7.230;2022-12-18T06:44:14;51225.25;;;-145.83;100.00
7730;BME280;3908;52.310;7.230;2022-12-18T06:47:01;51229.16;;;-145.83;100.00
7730;BME280;3908;52.310;7.230;2022-12-18T06:49:47;51260.47;;;-145.83;100.00
7730;BME280;3908;52.310;7.230;2022-12-18T06:52:36;51254.59;;;-145.83;100.00
7730;BME280;3908;52.310;7.230;2022-12-18T06:55:24;51266.34;;;-145.83;100.00
7730;BME280;3908;52.310;7.230;2022-12-18T06:58:13;51240.91;;;-145.83;100.00
7730;BME280;3908;52.310;7.230;2022-12-18T07:01:00;51252.66;;;-145.83;100.00
7730;BME280;3908;52.310;7.230;2022-12-18T07:03:52;51238.94;;;-145.83;100.00
7730;BME280;3908;52.310;7.230;2022-12-18T07:06:39;51223.28;;;-145.83;100.00
7730;BME280;3908;52.310;7.230;2022-12-18T07:09:26;51238.94;;;-145.83;100.00
7730;BME280;3908;52.310;7.230;2022-12-18T07:12:14;51240.91;;;-145.83;100.00
7730;BME280;3908;52.310;7.230;2022-12-18T07:15:03;51240.91;;;-145.83;100.00
7730;BME280;3908;52.310;7.230;2022-12-18T07:17:50;51268.28;;;-145.83;100.00
7730;BME280;3908;52.310;7.230;2022-12-18T07:20:37;51260.47;;;-145.83;100.00
7730;BME280;3908;52.310;7.230;2022-12-18T07:23:24;51283.94;;;-145.83;100.00
7730;BME280;3908;52.310;7.230;2022-12-18T07:26:12;51237.00;;;-145.83;100.00
7730;BME280;3908;52.310;7.230;2022-12-18T07:29:00;51219.38;;;-145.83;100.00
7730;BME280;3908;52.310;7.230;2022-12-18T07:31:50;51246.78;;;-145.83;100.00
7730;BME280;3908;52.310;7.230;2022-12-18T07:34:37;51244.81;;;-145.83;100.00
7730;BME280;3908;52.310;7.230;2022-12-18T07:37:24;51252.66;;;-145.83;100.00
7730;BME280;3908;52.310;7.230;2022-12-18T07:40:12;51242.84;;;-145.83;100.00
7730;BME280;3908;52.310;7.230;2022-12-18T07:42:59;51238.94;;;-145.83;100.00
7730;BME280;3908;52.310;7.230;2022-12-18T07:45:49;51248.72;;;-145.83;100.00
7730;BME280;3908;52.310;7.230;2022-12-18T07:48:37;51235.03;;;-145.83;100.00
7730;BME280;3908;52.310;7.230;2022-12-18T07:51:24;51235.03;;;-145.83;100.00
7730;BME280;3908;52.310;7.230;2022-12-18T07:54:11;51272.22;;;-145.83;100.00
7730;BME280;3908;52.310;7.230;2022-12-18T07:56:59;51227.22;;;-145.83;100.00
7730;BME280;3908;52.310;7.230;2022-12-18T07:59:46;51254.59;;;-145.83;100.00
7730;BME280;3908;52.310;7.230;2022-12-18T08:02:34;51274.16;;;-145.83;100.00
7730;BME280;3908;52.310;7.230;2022-12-18T08:05:22;51281.97;;;-145.83;100.00
7730;BME280;3908;52.310;7.230;2022-12-18T08:08:09;51272.22;;;-145.83;100.00
7730;BME280;3908;52.310;7.230;2022-12-18T08:10:57;51258.50;;;-145.83;100.00
7730;BME280;3908;52.310;7.230;2022-12-18T08:13:44;51280.03;;;-145.83;100.00
7730;BME280;3908;52.310;7.230;2022-12-18T08:16:31;51280.03;;;-145.83;100.00
7730;BME280;3908;52.310;7.230;2022-12-18T08:19:18;51297.63;;;-145.83;100.00
7730;BME280;3908;52.310;7.230;2022-12-18T08:22:07;51268.28;;;-145.83;100.00
7730;BME280;3908;52.310;7.230;2022-12-18T08:24:54;51274.16;;;-145.83;100.00
7730;BME280;3908;52.310;7.230;2022-12-18T08:27:41;51280.03;;;-145.83;100.00
7730;BME280;3908;52.310;7.230;2022-12-18T08:30:28;51276.13;;;-145.83;100.00
7730;BME280;3908;52.310;7.230;2022-12-18T08:33:15;51287.84;;;-145.83;100.00
7730;BME280;3908;52.310;7.230;2022-12-18T08:36:04;51272.22;;;-145.83;100.00
7730;BME280;3908;52.310;7.230;2022-12-18T08:38:53;51225.25;;;-145.83;100.00
7730;BME280;3908;52.310;7.230;2022-12-18T08:41:40;51280.03;;;-145.83;100.00
7730;BME280;3908;52.310;7.230;2022-12-18T08:44:27;51258.50;;;-145.83;100.00
7730;BME280;3908;52.310;7.230;2022-12-18T08:47:28;51293.72;;;-145.83;100.00
7730;BME280;3908;52.310;7.230;2022-12-18T08:50:16;51307.41;;;-145.83;100.00
7730;BME280;3908;52.310;7.230;2022-12-18T08:53:03;51313.28;;;-145.83;100.00
7730;BME280;3908;52.310;7.230;2022-12-18T08:55:51;51272.22;;;-145.83;100.00
7730;BME280;3908;52.310;7.230;2022-12-18T08:58:42;51305.47;;;-145.83;100.00
7730;BME280;3908;52.310;7.230;2022-12-18T09:01:29;51293.72;;;-145.83;100.00
7730;BME280;3908;52.310;7.230;2022-12-18T09:04:16;51301.53;;;-145.83;100.00
7730;BME280;3908;52.310;7.230;2022-12-18T09:07:03;51285.91;;;-145.83;100.00
7730;BME280;3908;52.310;7.230;2022-12-18T09:09:50;51309.38;;;-145.83;100.00
7730;BME280;3908;52.310;7.230;2022-12-18T09:12:38;51274.16;;;-145.83;100.00
7730;BME280;3908;52.310;7.230;2022-12-18T09:15:29;51293.72;;;-145.83;100.00
7730;BME280;3908;52.310;7.230;2022-12-18T09:18:17;51338.72;;;-145.83;100.00
7730;BME280;3908;52.310;7.230;2022-12-18T09:21:10;51297.63;;;-145.83;100.00
7730;BME280;3908;52.310;7.230;2022-12-18T09:23:57;51299.59;;;-145.83;100.00
7730;BME280;3908;52.310;7.230;2022-12-18T09:26:44;51309.38;;;-145.83;100.00
7730;BME280;3908;52.310;7.230;2022-12-18T09:29:33;51299.59;;;-145.83;100.00
7730;BME280;3908;52.310;7.230;2022-12-18T09:32:24;51323.06;;;-145.83;100.00
7730;BME280;3908;52.310;7.230;2022-12-18T09:35:11;51317.19;;;-145.83;100.00
7730;BME280;3908;52.310;7.230;2022-12-18T09:37:58;51315.25;;;-145.83;100.00
7730;BME280;3908;52.310;7.230;2022-12-18T09:40:47;51280.03;;;-145.83;100.00
7730;BME280;3908;52.310;7.230;2022-12-18T09:43:40;51346.53;;;-145.83;100.00
7730;BME280;3908;52.310;7.230;2022-12-18T09:46:33;51338.72;;;-145.83;100.00
7730;BME280;3908;52.310;7.230;2022-12-18T09:49:24;51332.84;;;-145.83;100.00
7730;BME280;3908;52.310;7.230;2022-12-18T09:52:17;51338.72;;;-145.83;100.00
7730;BME280;3908;52.310;7.230;2022-12-18T09:55:22;51299.59;;;-145.83;100.00
7730;BME280;3908;52.310;7.230;2022-12-18T09:58:18;51338.72;;;-145.83;100.00
7730;BME280;3908;52.310;7.230;2022-12-18T10:01:09;51354.38;;;-145.83;100.00
7730;BME280;3908;52.310;7.230;2022-12-18T10:03:59;51352.41;;;-145.83;100.00
7730;BME280;3908;52.310;7.230;2022-12-18T10:06:52;51317.19;;;-145.83;100.00
7730;BME280;3908;52.310;7.230;2022-12-18T10:09:44;51344.59;;;-145.83;100.00
7730;BME280;3908;52.310;7.230;2022-12-18T10:12:42;51315.25;;;-145.83;100.00
7730;BME280;3908;52.310;7.230;2022-12-18T10:15:36;51364.16;;;-145.83;100.00
7730;BME280;3908;52.310;7.230;2022-12-18T10:18:40;51323.06;;;-145.83;100.00
7730;BME280;3908;52.310;7.230;2022-12-18T10:21:38;51330.91;;;-145.83;100.00
7730;BME280;3908;52.310;7.230;2022-12-18T10:24:33;51340.69;;;-145.83;100.00
7730;BME280;3908;52.310;7.230;2022-12-18T10:27:26;51305.47;;;-145.83;100.00
7730;BME280;3908;52.310;7.230;2022-12-18T10:30:16;51325.03;;;-145.83;100.00
7730;BME280;3908;52.310;7.230;2022-12-18T10:33:04;51321.09;;;-145.83;100.00
7730;BME280;3908;52.310;7.230;2022-12-18T10:35:51;51340.69;;;-145.83;100.00
7730;BME280;3908;52.310;7.230;2022-12-18T10:38:40;51338.72;;;-145.83;100.00
7730;BME280;3908;52.310;7.230;2022-12-18T10:41:28;51360.22;;;-145.83;100.00
7730;BME280;3908;52.310;7.230;2022-12-18T10:44:18;51368.06;;;-145.83;100.00
7730;BME280;3908;52.310;7.230;2022-12-18T10:47:14;51325.03;;;-145.83;100.00
7730;BME280;3908;52.310;7.230;2022-12-18T10:50:02;51336.75;;;-145.83;100.00
7730;BME280;3908;52.310;7.230;2022-12-18T10:52:55;51362.19;;;-145.83;100.00
7730;BME280;3908;52.310;7.230;2022-12-18T10:55:45;51321.09;;;-145.83;100.00
7730;BME280;3908;52.310;7.230;2022-12-18T10:58:37;51389.59;;;-145.83;100.00
7730;BME280;3908;52.310;7.230;2022-12-18T11:01:25;51366.09;;;-145.83;100.00
7730;BME280;3908;52.310;7.230;2022-12-18T11:04:16;51334.81;;;-145.83;100.00
7730;BME280;3908;52.310;7.230;2022-12-18T11:07:06;51344.59;;;-145.83;100.00
7730;BME280;3908;52.310;7.230;2022-12-18T11:10:00;51350.47;;;-145.83;100.00
7730;BME280;3908;52.310;7.230;2022-12-18T11:12:52;51373.94;;;-145.83;100.00
7730;BME280;3908;52.310;7.230;2022-12-18T11:15:40;51362.19;;;-145.83;100.00
7730;BME280;3908;52.310;7.230;2022-12-18T11:18:29;51352.41;;;-145.83;100.00
7730;BME280;3908;52.310;7.230;2022-12-18T11:21:17;51334.81;;;-145.83;100.00
7730;BME280;3908;52.310;7.230;2022-12-18T11:24:09;51350.47;;;-145.83;100.00
7730;BME280;3908;52.310;7.230;2022-12-18T11:27:05;51373.94;;;-145.83;100.00
7730;BME280;3908;52.310;7.230;2022-12-18T11:30:07;51371.97;;;-145.83;100.00
7730;BME280;3908;52.310;7.230;2022-12-18T11:32:59;51350.47;;;-145.83;100.00
7730;BME280;3908;52.310;7.230;2022-12-18T11:35:50;51340.69;;;-145.83;100.00
7730;BME280;3908;52.310;7.230;2022-12-18T11:38:40;51375.88;;;-145.83;100.00
7730;BME280;3908;52.310;7.230;2022-12-18T11:41:32;51368.06;;;-145.83;100.00
7730;BME280;3908;52.310;7.230;2022-12-18T11:44:44;51368.06;;;-145.83;100.00
7730;BME280;3908;52.310;7.230;2022-12-18T11:47:40;51334.81;;;-145.83;100.00
7730;BME280;3908;52.310;7.230;2022-12-18T11:50:37;51326.97;;;-145.83;100.00
7730;BME280;3908;52.310;7.230;2022-12-18T11:53:26;51356.31;;;-145.83;100.00
7730;BME280;3908;52.310;7.230;2022-12-18T11:56:28;51368.06;;;-145.83;100.00
7730;BME280;3908;52.310;7.230;2022-12-18T11:59:27;51325.03;;;-145.83;100.00
7730;BME280;3908;52.310;7.230;2022-12-18T12:02:36;51336.75;;;-145.83;100.00
7730;BME280;3908;52.310;7.230;2022-12-18T12:05:37;51371.97;;;-145.83;100.00
7730;BME280;3908;52.310;7.230;2022-12-18T12:08:34;51358.28;;;-145.83;100.00
7730;BME280;3908;52.310;7.230;2022-12-18T12:11:30;51346.53;;;-145.83;100.00
7730;BME280;3908;52.310;7.230;2022-12-18T12:14:32;51373.94;;;-145.83;100.00
7730;BME280;3908;52.310;7.230;2022-12-18T12:17:30;51330.91;;;-145.83;100.00
7730;BME280;3908;52.310;7.230;2022-12-18T12:20:28;51362.19;;;-145.83;100.00
7730;BME280;3908;52.310;7.230;2022-12-18T12:23:27;51375.88;;;-145.83;100.00
7730;BME280;3908;52.310;7.230;2022-12-18T12:26:19;51338.72;;;-145.83;100.00
7730;BME280;3908;52.310;7.230;2022-12-18T12:29:27;51336.75;;;-145.83;100.00
7730;BME280;3908;52.310;7.230;2022-12-18T12:32:35;51350.47;;;-145.83;100.00
7730;BME280;3908;52.310;7.230;2022-12-18T12:35:37;51362.19;;;-145.83;100.00
7730;BME280;3908;52.310;7.230;2022-12-18T12:38:33;51330.91;;;-145.83;100.00
7730;BME280;3908;52.310;7.230;2022-12-18T12:41:25;51336.75;;;-145.83;100.00
7730;BME280;3908;52.310;7.230;2022-12-18T12:44:37;51332.84;;;-145.83;100.00
7730;BME280;3908;52.310;7.230;2022-12-18T12:47:32;51375.88;;;-145.83;100.00
7730;BME280;3908;52.310;7.230;2022-12-18T12:50:21;51371.97;;;-145.83;100.00
7730;BME280;3908;52.310;7.230;2022-12-18T12:53:21;51362.19;;;-145.83;100.00
7730;BME280;3908;52.310;7.230;2022-12-18T12:56:10;51366.09;;;-145.83;100.00
7730;BME280;3908;52.310;7.230;2022-12-18T12:59:04;51340.69;;;-145.83;100.00
7730;BME280;3908;52.310;7.230;2022-12-18T13:02:01;51358.28;;;-145.83;100.00
7730;BME280;3908;52.310;7.230;2022-12-18T13:04:52;51368.06;;;-145.83;100.00
7730;BME280;3908;52.310;7.230;2022-12-18T13:07:50;51356.31;;;-145.83;100.00
7730;BME280;3908;52.310;7.230;2022-12-18T13:10:41;51334.81;;;-145.83;100.00
7730;BME280;3908;52.310;7.230;2022-12-18T13:13:48;51383.72;;;-145.83;100.00
7730;BME280;3908;52.310;7.230;2022-12-18T13:16:34;51358.28;;;-145.83;100.00
7730;BME280;3908;52.310;7.230;2022-12-18T13:19:25;51297.63;;;-145.83;100.00
7730;BME280;3908;52.310;7.230;2022-12-18T13:22:22;51371.97;;;-145.83;100.00
7730;BME280;3908;52.310;7.230;2022-12-18T13:25:32;51344.59;;;-145.83;100.00
7730;BME280;3908;52.310;7.230;2022-12-18T13:28:23;51366.09;;;-145.83;100.00
7730;BME280;3908;52.310;7.230;2022-12-18T13:31:15;51352.41;;;-145.83;100.00
7730;BME280;3908;52.310;7.230;2022-12-18T13:34:22;51368.06;;;-145.83;100.00
7730;BME280;3908;52.310;7.230;2022-12-18T13:37:42;51336.75;;;-145.83;100.00
7730;BME280;3908;52.310;7.230;2022-12-18T13:40:54;51383.72;;;-145.83;100.00
7730;BME280;3908;52.310;7.230;2022-12-18T13:43:45;51370.03;;;-145.83;100.00
7730;BME280;3908;52.310;7.230;2022-12-18T13:46:42;51340.69;;;-145.83;100.00
7730;BME280;3908;52.310;7.230;2022-12-18T13:49:36;51348.50;;;-145.83;100.00
7730;BME280;3908;52.310;7.230;2022-12-18T13:52:26;51368.06;;;-145.83;100.00
7730;BME280;3908;52.310;7.230;2022-12-18T13:55:17;51348.50;;;-145.83;100.00
7730;BME280;3908;52.310;7.230;2022-12-18T13:58:05;51375.88;;;-145.83;100.00
7730;BME280;3908;52.310;7.230;2022-12-18T14:00:54;51330.91;;;-145.83;100.00
7730;BME280;3908;52.310;7.230;2022-12-18T14:03:41;51352.41;;;-145.83;100.00
7730;BME280;3908;52.310;7.230;2022-12-18T14:06:29;51368.06;;;-145.83;100.00
7730;BME280;3908;52.310;7.230;2022-12-18T14:09:21;51340.69;;;-145.83;100.00
7730;BME280;3908;52.310;7.230;2022-12-18T14:12:15;51356.31;;;-145.83;100.00
7730;BME280;3908;52.310;7.230;2022-12-18T14:15:25;51319.16;;;-145.83;100.00
7730;BME280;3908;52.310;7.230;2022-12-18T14:18:22;51373.94;;;-145.83;100.00
7730;BME280;3908;52.310;7.230;2022-12-18T14:21:18;51356.31;;;-145.83;100.00
7730;BME280;3908;52.310;7.230;2022-12-18T14:24:14;51358.28;;;-145.83;100.00
7730;BME280;3908;52.310;7.230;2022-12-18T14:27:17;51334.81;;;-145.83;100.00
7730;BME280;3908;52.310;7.230;2022-12-18T14:30:25;51340.69;;;-145.83;100.00
7730;BME280;3908;52.310;7.230;2022-12-18T14:33:17;51305.47;;;-145.83;100.00
7730;BME280;3908;52.310;7.230;2022-12-18T14:36:15;51360.22;;;-145.83;100.00
7730;BME280;3908;52.310;7.230;2022-12-18T14:39:03;51368.06;;;-145.83;100.00
7730;BME280;3908;52.310;7.230;2022-12-18T14:41:51;51373.94;;;-145.83;100.00
7730;BME280;3908;52.310;7.230;2022-12-18T14:44:38;51348.50;;;-145.83;100.00
7730;BME280;3908;52.310;7.230;2022-12-18T14:47:25;51377.84;;;-145.83;100.00
7730;BME280;3908;52.310;7.230;2022-12-18T14:50:13;51328.94;;;-145.83;100.00
7730;BME280;3908;52.310;7.230;2022-12-18T14:53:02;51297.63;;;-145.83;100.00
7730;BME280;3908;52.310;7.230;2022-12-18T14:55:55;51321.09;;;-145.83;100.00